Time;durP1;ratioP1;P1;durP2;ratioP2;P2;SDS_P1;SDS_P2;PMS_P1;PMS_P2;Temp;Humidity;BMP_temperature;BMP_pressure;BME280_temperature;BME280_humidity;BME280_pressure;Samples;Min_cycle;Max_cycle;Signal;HPM_P1;HPM_P2
2021/04/30 00:01:23;;;;;;;18.88;9.07;;;10.00;99.90;;;10.57;69.28;100160.50;5068563;28;20208;-68
2021/04/30 00:03:50;;;;;;;15.63;8.38;;;10.00;99.90;;;10.54;68.91;100158.03;5079096;28;20652;-71
2021/04/30 00:06:16;;;;;;;18.95;8.38;;;9.90;99.90;;;10.49;68.72;100160.00;5078318;28;20913;-69
2021/04/30 00:08:43;;;;;;;15.60;7.82;;;9.90;99.90;;;10.44;68.66;100159.38;5079552;28;20229;-73
2021/04/30 00:11:09;;;;;;;17.38;7.97;;;9.80;99.90;;;10.39;68.81;100164.81;5076038;28;20220;-73
2021/04/30 00:13:37;;;;;;;16.98;7.70;;;9.80;99.90;;;10.37;68.92;100152.72;5080199;28;20216;-69
2021/04/30 00:16:04;;;;;;;15.00;7.45;;;9.80;99.90;;;10.32;68.50;100167.78;5087286;28;20679;-72
2021/04/30 00:18:30;;;;;;;15.50;7.65;;;9.70;99.90;;;10.31;68.83;100159.09;5078042;28;20205;-72
2021/04/30 00:20:59;;;;;;;15.35;7.95;;;9.70;99.90;;;10.30;68.91;100159.19;5077827;28;20886;-72
2021/04/30 00:23:27;;;;;;;18.48;7.90;;;9.70;99.90;;;10.31;68.63;100168.72;5078621;28;20661;-73
2021/04/30 00:25:56;;;;;;;15.38;7.22;;;9.70;99.90;;;10.29;68.75;100158.31;5079509;28;20727;-71
2021/04/30 00:28:23;;;;;;;14.63;7.50;;;9.70;99.90;;;10.31;68.49;100156.50;5079046;28;20206;-71
2021/04/30 00:30:52;;;;;;;14.15;7.10;;;9.70;99.90;;;10.30;69.14;100164.41;5078012;28;20212;-72
2021/04/30 00:33:19;;;;;;;16.25;7.75;;;9.70;99.90;;;10.28;68.80;100161.00;5058630;28;20586;-72
2021/04/30 00:35:45;;;;;;;15.35;7.35;;;9.70;99.90;;;10.28;69.05;100169.72;5072342;28;20204;-70
2021/04/30 00:38:12;;;;;;;13.25;6.97;;;9.60;99.90;;;10.29;69.34;100167.91;5062138;28;20624;-72
2021/04/30 00:40:39;;;;;;;15.82;7.45;;;9.60;99.90;;;10.31;68.89;100163.47;5060042;28;20269;-72
2021/04/30 00:43:06;;;;;;;16.77;8.18;;;9.60;99.90;;;10.33;68.80;100164.25;5060186;28;20207;-71
2021/04/30 00:45:33;;;;;;;14.85;7.68;;;9.70;99.90;;;10.34;69.08;100171.19;5059681;28;20209;-72
2021/04/30 00:48:00;;;;;;;16.92;8.48;;;9.70;99.90;;;10.33;68.95;100175.59;5076213;28;20217;-72
2021/04/30 00:50:29;;;;;;;15.13;7.75;;;9.70;99.90;;;10.31;69.22;100174.78;5060869;28;20263;-71
2021/04/30 00:52:56;;;;;;;16.60;8.52;;;9.70;99.90;;;10.31;69.40;100168.72;5097131;28;20219;-73
2021/04/30 00:55:23;;;;;;;15.63;7.82;;;9.70;99.90;;;10.27;68.96;100170.59;5082298;28;20241;-69
2021/04/30 00:57:55;;;;;;;15.77;7.93;;;9.70;99.90;;;10.27;69.37;100180.22;5083219;28;20597;-72
2021/04/30 01:00:25;;;;;;;16.92;8.10;;;9.70;99.90;;;10.28;69.60;100171.47;5076757;28;20204;-72
2021/04/30 01:02:52;;;;;;;17.42;7.85;;;9.70;99.90;;;10.29;69.21;100191.44;5092315;28;20192;-71
2021/04/30 01:05:20;;;;;;;15.23;8.00;;;9.70;99.90;;;10.28;69.54;100192.38;5093938;28;20192;-72
2021/04/30 01:07:47;;;;;;;16.17;8.50;;;9.70;99.90;;;10.28;69.47;100195.00;5092412;28;20267;-69
2021/04/30 01:10:14;;;;;;;15.70;8.27;;;9.70;99.90;;;10.27;69.55;100193.28;5096937;28;20738;-68
2021/04/30 01:12:42;;;;;;;16.17;8.50;;;9.70;99.90;;;10.24;69.68;100193.44;5110887;28;20191;-70
2021/04/30 01:15:11;;;;;;;16.13;8.10;;;9.70;99.90;;;10.21;70.03;100190.94;5106909;28;20192;-72
2021/04/30 01:17:39;;;;;;;18.67;8.52;;;9.60;99.90;;;10.21;69.87;100199.66;5093718;28;20203;-71
2021/04/30 01:20:09;;;;;;;14.68;7.70;;;9.60;99.90;;;10.22;69.94;100208.31;5081944;28;20276;-71
2021/04/30 01:22:38;;;;;;;15.27;7.82;;;9.60;99.90;;;10.22;69.88;100209.19;5080924;28;20218;-73
2021/04/30 01:25:08;;;;;;;16.40;8.48;;;9.60;99.90;;;10.16;69.97;100200.78;5078498;28;20257;-70
2021/04/30 01:27:35;;;;;;;15.77;7.93;;;9.60;99.90;;;10.13;70.12;100210.44;5079746;28;20196;-68
2021/04/30 01:30:02;;;;;;;16.63;8.52;;;9.60;99.90;;;10.10;70.21;100202.75;5080966;28;20214;-71
2021/04/30 01:32:28;;;;;;;15.27;7.85;;;9.50;99.90;;;10.09;70.34;100206.28;5072653;28;20203;-71
2021/04/30 01:34:54;;;;;;;14.05;7.28;;;9.60;99.90;;;10.10;70.43;100207.97;5082365;28;20200;-70
2021/04/30 01:37:20;;;;;;;15.73;8.05;;;9.50;99.90;;;10.13;70.33;100213.97;5079768;28;20207;-71
2021/04/30 01:39:48;;;;;;;15.80;7.88;;;9.50;99.90;;;10.16;69.98;100211.22;5080566;28;20273;-70
2021/04/30 01:42:14;;;;;;;15.25;7.80;;;9.50;99.90;;;10.18;70.17;100218.06;5078095;28;20696;-71
2021/04/30 01:44:40;;;;;;;15.80;7.68;;;9.60;99.90;;;10.17;70.04;100215.53;5075829;28;20227;-71
2021/04/30 01:47:07;;;;;;;13.43;7.10;;;9.60;99.90;;;10.15;70.11;100220.00;5077734;28;20717;-72
2021/04/30 01:49:33;;;;;;;15.07;7.63;;;9.50;99.90;;;10.13;69.92;100227.06;5077609;28;20184;-71
2021/04/30 01:51:59;;;;;;;14.38;7.20;;;9.50;99.90;;;10.12;70.13;100223.59;5076897;28;20184;-72
2021/04/30 01:54:25;;;;;;;18.60;8.60;;;9.60;99.90;;;10.10;70.27;100228.03;5083552;28;20227;-71
2021/04/30 01:56:52;;;;;;;14.88;7.40;;;9.50;99.90;;;10.11;70.22;100221.91;5069794;28;20202;-70
2021/04/30 01:59:19;;;;;;;15.10;8.00;;;9.50;99.90;;;10.06;70.48;100224.66;5075995;28;20191;-70
2021/04/30 02:01:45;;;;;;;14.27;7.68;;;9.50;99.90;;;10.06;70.63;100226.44;5059354;28;20224;-70
2021/04/30 02:04:12;;;;;;;15.45;8.20;;;9.50;99.90;;;10.03;70.62;100232.63;5076856;28;20536;-71
2021/04/30 02:06:40;;;;;;;15.48;7.95;;;9.40;99.90;;;10.00;70.80;100224.94;5077101;28;20588;-70
2021/04/30 02:09:08;;;;;;;17.58;8.32;;;9.40;99.90;;;9.97;71.04;100238.13;5077077;28;20234;-71
2021/04/30 02:11:35;;;;;;;16.52;7.97;;;9.40;99.90;;;9.93;71.27;100238.31;5076667;28;20232;-71
2021/04/30 02:14:06;;;;;;;14.60;7.57;;;9.40;99.90;;;9.91;71.46;100243.59;5069920;28;20217;-70
2021/04/30 02:16:34;;;;;;;16.10;7.75;;;9.40;99.90;;;9.93;71.38;100243.53;5074704;28;20245;-71
2021/04/30 02:19:01;;;;;;;14.68;7.07;;;9.30;99.90;;;9.88;71.65;100246.34;5072310;28;20185;-69
2021/04/30 02:21:27;;;;;;;16.60;8.18;;;9.30;99.90;;;9.85;71.54;100249.09;5075956;28;20703;-71
2021/04/30 02:23:55;;;;;;;15.43;8.05;;;9.30;99.90;;;9.86;71.70;100239.50;5076051;28;20184;-71
2021/04/30 02:26:24;;;;;;;16.63;8.45;;;9.30;99.90;;;9.88;71.94;100250.72;5074919;28;20188;-72
2021/04/30 02:28:51;;;;;;;17.10;7.88;;;9.30;99.90;;;9.87;72.03;100255.13;5073818;28;20662;-73
2021/04/30 02:31:18;;;;;;;15.35;7.65;;;9.30;99.90;;;9.80;72.05;100251.06;5074003;28;20216;-71
2021/04/30 02:33:45;;;;;;;18.00;8.75;;;9.30;99.90;;;9.80;72.27;100251.06;5067371;28;20209;-71
2021/04/30 02:36:12;;;;;;;17.77;8.13;;;9.30;99.90;;;9.77;72.51;100259.03;5074342;28;20184;-70
2021/04/30 02:38:38;;;;;;;16.20;8.57;;;9.20;99.90;;;9.71;72.64;100263.69;5075028;28;20202;-71
2021/04/30 02:41:05;;;;;;;16.38;8.93;;;9.20;99.90;;;9.68;72.97;100258.56;5075717;28;20560;-70
2021/04/30 02:43:31;;;;;;;18.63;8.27;;;9.10;99.90;;;9.68;73.03;100266.38;5075957;28;20652;-70
2021/04/30 02:46:00;;;;;;;16.00;7.97;;;9.10;99.90;;;9.69;73.29;100263.75;5075270;28;20224;-70
2021/04/30 02:48:32;;;;;;;16.40;8.38;;;9.20;99.90;;;9.73;73.37;100267.91;5074201;28;20197;-71
2021/04/30 02:51:03;;;;;;;15.57;8.27;;;9.20;99.90;;;9.70;73.72;100267.19;5072693;28;20291;-72
2021/04/30 02:53:29;;;;;;;17.73;7.97;;;9.10;99.90;;;9.63;73.83;100266.59;5075640;28;20703;-69
2021/04/30 02:55:56;;;;;;;15.20;8.35;;;9.10;99.90;;;9.58;74.62;100273.75;5074761;28;20265;-72
2021/04/30 02:58:24;;;;;;;15.63;7.97;;;9.10;99.90;;;9.55;74.74;100279.13;5074479;28;20196;-72
2021/04/30 03:00:50;;;;;;;17.40;8.20;;;9.00;99.90;;;9.56;75.21;100279.97;5073908;28;20215;-73
2021/04/30 03:03:17;;;;;;;15.82;8.77;;;9.10;99.90;;;9.54;75.34;100284.41;5073289;28;20204;-73
2021/04/30 03:05:44;;;;;;;16.90;8.40;;;9.10;99.90;;;9.56;75.47;100279.97;5073766;28;20195;-73
2021/04/30 03:08:10;;;;;;;19.05;8.95;;;9.00;99.90;;;9.57;75.60;100281.66;5066873;28;20199;-72
2021/04/30 03:10:36;;;;;;;18.45;8.65;;;9.00;99.90;;;9.53;75.93;100290.53;5055072;28;20200;-71
2021/04/30 03:13:03;;;;;;;16.42;8.20;;;9.00;99.90;;;9.48;76.37;100293.31;5055048;28;20205;-72
2021/04/30 03:15:32;;;;;;;15.77;8.45;;;9.00;99.90;;;9.42;77.18;100298.81;5065872;28;20223;-73
2021/04/30 03:17:58;;;;;;;17.05;9.13;;;8.90;99.90;;;9.40;77.46;100294.53;5067819;28;20908;-72
2021/04/30 03:20:25;;;;;;;17.42;8.55;;;8.90;99.90;;;9.37;78.01;100310.34;5074847;28;20215;-72
2021/04/30 03:22:52;;;;;;;16.55;8.57;;;8.80;99.90;;;9.30;78.75;100319.31;5075049;28;20188;-72
2021/04/30 03:25:19;;;;;;;18.65;9.52;;;8.80;99.90;;;9.20;79.65;100318.81;5067676;28;20193;-72
2021/04/30 03:27:46;;;;;;;18.50;9.27;;;8.60;99.90;;;9.17;80.29;100328.53;5056033;28;20575;-72
2021/04/30 03:30:14;;;;;;;18.10;9.75;;;8.60;99.90;;;9.14;81.18;100328.66;5055418;28;20212;-71
2021/04/30 03:32:41;;;;;;;17.58;9.07;;;8.50;99.90;;;9.15;81.25;100325.13;5066763;28;20212;-70
2021/04/30 03:35:10;;;;;;;17.33;8.73;;;8.50;99.90;;;9.13;81.53;100332.16;5075233;28;20187;-72
2021/04/30 03:37:36;;;;;;;18.70;9.27;;;8.40;99.90;;;9.10;82.02;100335.75;5075237;28;20218;-72
2021/04/30 03:40:05;;;;;;;18.88;9.23;;;8.40;99.90;;;9.05;82.08;100328.97;5076505;28;20696;-71
2021/04/30 03:42:32;;;;;;;18.42;9.15;;;8.30;99.90;;;8.99;82.74;100327.47;5065869;28;20204;-73
2021/04/30 03:44:58;;;;;;;19.77;10.00;;;8.30;99.90;;;9.02;82.97;100334.31;5057117;28;20244;-72
2021/04/30 03:47:24;;;;;;;24.48;10.23;;;8.30;99.90;;;9.04;82.63;100335.13;5057804;28;20180;-72
2021/04/30 03:49:50;;;;;;;19.20;9.02;;;8.30;99.90;;;9.02;82.95;100331.72;5054343;28;20231;-72
2021/04/30 03:52:16;;;;;;;17.90;9.18;;;8.30;99.90;;;9.03;82.93;100334.25;5057721;28;20625;-72
2021/04/30 03:54:43;;;;;;;21.83;9.90;;;8.30;99.90;;;9.07;82.70;100338.47;5081514;28;20192;-71
2021/04/30 03:57:10;;;;;;;20.40;9.93;;;8.30;99.90;;;9.07;82.79;100338.47;5076483;28;20187;-72
2021/04/30 03:59:36;;;;;;;20.75;10.48;;;8.40;99.90;;;9.11;82.76;100339.22;5063387;28;20197;-72
2021/04/30 04:02:02;;;;;;;18.58;9.43;;;8.40;99.90;;;9.13;82.42;100343.44;5062159;28;20851;-72
2021/04/30 04:04:29;;;;;;;16.65;8.45;;;8.50;99.90;;;9.16;82.20;100343.31;5077747;28;20195;-73
2021/04/30 04:06:55;;;;;;;18.02;9.48;;;8.50;99.90;;;9.17;82.26;100346.78;5078896;28;20195;-73
2021/04/30 04:09:21;;;;;;;19.13;10.05;;;8.50;99.90;;;9.18;82.18;100348.50;5079326;28;20188;-73
2021/04/30 04:11:47;;;;;;;20.15;9.55;;;8.50;99.90;;;9.21;82.31;100351.84;5077284;28;20270;-72
2021/04/30 04:14:15;;;;;;;17.73;9.07;;;8.50;99.90;;;9.23;81.93;100350.03;5094354;28;20832;-73
2021/04/30 04:16:41;;;;;;;18.08;9.32;;;8.60;99.90;;;9.25;82.22;100357.78;5072058;28;20200;-72
2021/04/30 04:19:09;;;;;;;19.33;9.18;;;8.60;99.90;;;9.24;82.30;100356.09;5057683;28;20217;-71
2021/04/30 04:21:35;;;;;;;21.00;10.00;;;8.60;99.90;;;9.22;82.28;100368.34;5055760;28;20228;-72
2021/04/30 04:24:02;;;;;;;21.33;10.65;;;8.60;99.90;;;9.24;82.38;100377.84;5055363;28;20216;-72
2021/04/30 04:26:28;;;;;;;17.88;9.98;;;8.60;99.90;;;9.23;82.23;100381.34;5054913;28;20204;-71
2021/04/30 04:28:55;;;;;;;18.70;9.50;;;8.70;99.90;;;9.24;82.46;100385.69;5054714;28;20545;-72
2021/04/30 04:31:22;;;;;;;21.00;9.93;;;8.70;99.90;;;9.26;82.12;100391.66;5054830;28;20212;-72
2021/04/30 04:33:48;;;;;;;20.52;9.38;;;8.70;99.90;;;9.29;82.27;100385.50;5069053;28;20215;-72
2021/04/30 04:36:14;;;;;;;18.65;10.20;;;8.70;99.90;;;9.30;81.93;100403.72;5076239;28;20191;-72
2021/04/30 04:38:40;;;;;;;17.83;9.35;;;8.70;99.90;;;9.30;82.31;100403.72;5076267;28;20184;-71
2021/04/30 04:41:07;;;;;;;20.42;8.75;;;8.70;99.90;;;9.29;82.05;100404.63;5073857;28;20219;-72
2021/04/30 04:43:33;;;;;;;18.20;8.88;;;8.70;99.90;;;9.29;82.03;100407.25;5075356;28;20188;-72
2021/04/30 04:45:59;;;;;;;18.02;9.15;;;8.80;99.90;;;9.28;82.24;100415.97;5074206;28;20192;-73
2021/04/30 04:48:26;;;;;;;19.02;10.00;;;8.70;99.90;;;9.24;82.17;100417.00;5076959;28;20188;-73
2021/04/30 04:50:53;;;;;;;20.58;10.07;;;8.70;99.90;;;9.20;82.15;100412.78;5076425;28;20238;-71
2021/04/30 04:53:19;;;;;;;18.00;9.68;;;8.70;99.90;;;9.20;82.39;100406.72;5076196;28;20216;-72
2021/04/30 04:55:45;;;;;;;20.30;10.10;;;8.70;99.90;;;9.22;82.55;100424.03;5077767;28;20585;-71
2021/04/30 04:58:11;;;;;;;18.45;9.63;;;8.70;99.90;;;9.24;82.37;100422.22;5079801;28;20186;-72
2021/04/30 05:00:38;;;;;;;17.80;9.82;;;8.70;99.90;;;9.23;82.26;100428.34;5079057;28;20204;-71
2021/04/30 05:03:04;;;;;;;19.73;9.50;;;8.70;99.90;;;9.20;82.12;100423.25;5076073;28;20239;-71
2021/04/30 05:05:32;;;;;;;20.10;9.32;;;8.70;99.90;;;9.21;82.41;100430.16;5076728;28;20195;-71
2021/04/30 05:07:58;;;;;;;19.98;9.70;;;8.70;99.90;;;9.24;81.96;100432.66;5078043;28;20188;-72
2021/04/30 05:10:24;;;;;;;19.85;9.23;;;8.70;99.90;;;9.26;82.11;100432.63;5077787;28;20607;-71
2021/04/30 05:12:52;;;;;;;19.92;9.68;;;8.70;99.90;;;9.26;81.84;100435.22;5076707;28;20279;-72
2021/04/30 05:15:19;;;;;;;16.80;8.98;;;8.80;99.90;;;9.28;82.01;100436.84;5077366;28;20192;-70
2021/04/30 05:17:46;;;;;;;17.73;9.60;;;8.80;99.90;;;9.36;82.00;100439.19;5077300;28;20610;-69
2021/04/30 05:20:13;;;;;;;18.35;9.02;;;8.80;99.90;;;9.37;81.89;100441.75;5077494;28;20555;-71
2021/04/30 05:22:42;;;;;;;21.08;9.32;;;8.80;99.90;;;9.38;81.64;100445.19;5079352;28;20180;-71
2021/04/30 05:25:11;;;;;;;16.17;8.95;;;8.90;99.90;;;9.41;81.78;100453.75;5077119;28;20208;-70
2021/04/30 05:27:41;;;;;;;18.38;9.60;;;8.90;99.90;;;9.39;81.41;100453.00;5063132;28;20193;-69
2021/04/30 05:30:09;;;;;;;17.45;9.18;;;8.90;99.90;;;9.38;81.50;100455.63;5057967;28;20767;-69
2021/04/30 05:32:35;;;;;;;18.10;9.05;;;8.90;99.90;;;9.36;81.34;100458.31;5081778;28;20668;-70
2021/04/30 05:35:03;;;;;;;20.58;9.68;;;8.80;99.90;;;9.33;81.71;100470.63;5075936;28;20220;-70
2021/04/30 05:37:30;;;;;;;20.00;9.60;;;8.80;99.90;;;9.33;81.47;100474.09;5079033;28;20223;-70
2021/04/30 05:39:58;;;;;;;17.63;9.40;;;8.80;99.90;;;9.35;81.67;100472.28;5077785;28;20611;-70
2021/04/30 05:42:24;;;;;;;17.95;8.90;;;8.80;99.90;;;9.40;81.33;100475.56;5076446;28;20192;-70
2021/04/30 05:44:51;;;;;;;16.45;8.30;;;8.90;99.90;;;9.46;81.26;100482.34;5074368;28;20203;-70
2021/04/30 05:47:17;;;;;;;17.63;8.18;;;8.90;99.90;;;9.49;81.34;100483.09;5078732;28;20191;-73
2021/04/30 05:49:44;;;;;;;16.90;8.50;;;9.00;99.90;;;9.52;80.83;100487.31;5078496;28;20185;-71
2021/04/30 05:52:10;;;;;;;15.15;7.45;;;9.00;99.90;;;9.49;80.66;100492.66;5079564;28;20188;-71
2021/04/30 05:54:37;;;;;;;15.88;8.27;;;9.00;99.90;;;9.48;80.43;100490.94;5077673;28;20215;-70
2021/04/30 05:57:05;;;;;;;15.98;8.25;;;9.00;99.90;;;9.48;80.43;100491.81;5077593;28;20613;-70
2021/04/30 05:59:31;;;;;;;16.38;8.52;;;9.00;99.90;;;9.51;80.33;100496.09;5059283;28;20691;-70
2021/04/30 06:01:57;;;;;;;17.08;8.65;;;9.10;99.90;;;9.55;80.23;100487.22;5060706;28;20324;-70
2021/04/30 06:04:26;;;;;;;16.70;8.43;;;9.10;99.90;;;9.57;80.14;100501.94;5059249;28;20227;-71
2021/04/30 06:06:53;;;;;;;16.08;7.90;;;9.20;99.90;;;9.62;79.78;100513.06;5055419;28;20223;-71
2021/04/30 06:09:20;;;;;;;17.20;8.40;;;9.20;99.90;;;9.67;79.63;100508.53;5083460;28;20269;-70
2021/04/30 06:11:48;;;;;;;17.60;8.38;;;9.20;99.90;;;9.72;79.54;100517.03;5058717;28;20226;-71
2021/04/30 06:14:15;;;;;;;18.45;8.32;;;9.20;99.90;;;9.75;79.28;100519.53;5059488;28;20212;-68
2021/04/30 06:16:42;;;;;;;15.48;7.70;;;9.20;99.90;;;9.71;79.09;100536.22;5058964;28;20224;-68
2021/04/30 06:19:08;;;;;;;15.68;8.05;;;9.20;99.90;;;9.64;79.11;100529.53;5055555;28;20250;-71
2021/04/30 06:21:35;;;;;;;15.38;7.82;;;9.20;99.90;;;9.61;79.03;100534.03;5062909;28;20725;-68
2021/04/30 06:24:02;;;;;;;16.45;8.13;;;9.10;99.90;;;9.58;79.15;100532.34;5062232;28;20197;-69
2021/04/30 06:26:30;;;;;;;13.48;6.75;;;9.10;99.90;;;9.62;79.29;100544.41;5065432;28;20197;-69
2021/04/30 06:29:00;;;;;;;14.00;6.53;;;9.10;99.90;;;9.64;78.80;100540.00;5075947;28;20204;-69
2021/04/30 06:31:28;;;;;;;14.20;6.43;;;9.10;99.90;;;9.68;78.71;100557.22;5081493;28;20212;-70
2021/04/30 06:33:55;;;;;;;13.45;6.13;;;9.20;99.90;;;9.72;78.32;100556.22;5064043;28;20216;-69
2021/04/30 06:36:22;;;;;;;12.25;5.93;;;9.30;99.90;;;9.76;78.10;100560.41;5067309;28;20196;-69
2021/04/30 06:38:48;;;;;;;14.35;6.10;;;9.30;99.90;;;9.77;77.81;100566.50;5075206;28;20250;-71
2021/04/30 06:41:15;;;;;;;11.68;5.68;;;9.30;99.90;;;9.77;77.63;100564.75;5070545;28;20223;-68
2021/04/30 06:43:42;;;;;;;10.75;4.78;;;9.30;99.90;;;9.75;77.53;100568.31;5069956;28;20200;-69
2021/04/30 06:46:08;;;;;;;11.00;5.32;;;9.30;99.90;;;9.79;77.40;100578.63;5066339;28;20211;-67
2021/04/30 06:48:36;;;;;;;12.82;5.70;;;9.40;99.90;;;9.82;76.79;100577.63;5066457;28;20203;-67
2021/04/30 06:51:03;;;;;;;11.70;4.90;;;9.50;99.90;;;9.85;76.87;100583.59;5063660;28;20223;-69
2021/04/30 06:53:29;;;;;;;9.75;4.65;;;9.50;99.90;;;9.88;76.62;100580.88;5066436;28;20699;-68
2021/04/30 06:55:55;;;;;;;10.63;4.55;;;9.50;99.90;;;9.89;76.38;100585.22;5067014;28;20207;-71
2021/04/30 06:58:21;;;;;;;9.88;3.80;;;9.60;99.90;;;9.92;76.07;100582.47;5067162;28;20199;-70
2021/04/30 07:00:48;;;;;;;10.05;3.53;;;9.60;99.90;;;9.89;74.97;100595.66;5055662;28;20212;-68
2021/04/30 07:03:14;;;;;;;7.55;3.25;;;9.60;99.90;;;9.90;74.42;100605.19;5064626;28;20188;-68
2021/04/30 07:05:41;;;;;;;8.05;3.00;;;9.60;99.90;;;9.90;73.63;100596.50;5064151;28;20211;-68
2021/04/30 07:08:07;;;;;;;8.60;2.97;;;9.60;99.90;;;9.88;73.16;100601.78;5062904;28;20208;-69
2021/04/30 07:10:34;;;;;;;7.15;2.85;;;9.60;99.90;;;9.91;72.73;100611.28;5058574;28;20220;-70
2021/04/30 07:13:01;;;;;;;8.57;3.03;;;9.60;99.90;;;9.93;72.69;100605.06;5059590;28;20674;-70
2021/04/30 07:15:27;;;;;;;9.70;3.38;;;9.60;99.90;;;9.98;72.38;100616.22;5059166;28;20238;-71
2021/04/30 07:17:54;;;;;;;7.70;2.83;;;9.70;99.90;;;10.04;72.28;100616.00;5055934;28;20204;-71
2021/04/30 07:20:20;;;;;;;8.38;2.75;;;9.70;99.90;;;10.04;71.62;100617.75;5054379;28;20212;-69
2021/04/30 07:22:47;;;;;;;7.68;2.60;;;9.80;99.90;;;10.06;71.54;100627.25;5056209;28;20254;-70
2021/04/30 07:25:14;;;;;;;8.43;3.30;;;9.80;99.90;;;10.10;70.80;100628.00;5056718;28;20188;-70
2021/04/30 07:27:40;;;;;;;8.63;3.10;;;9.80;99.90;;;10.10;70.51;100631.50;5054962;28;20192;-70
2021/04/30 07:30:08;;;;;;;9.48;3.03;;;9.80;99.90;;;10.15;70.20;100635.72;5054663;28;20222;-70
2021/04/30 07:32:34;;;;;;;9.05;3.13;;;9.90;99.90;;;10.22;70.13;100631.94;5054459;28;20568;-69
2021/04/30 07:35:01;;;;;;;8.02;3.17;;;9.90;99.90;;;10.27;70.19;100630.84;5081825;28;20375;-68
2021/04/30 07:37:27;;;;;;;9.32;3.90;;;10.10;99.90;;;10.37;70.16;100633.97;5072703;28;20192;-70
2021/04/30 07:39:55;;;;;;;9.05;3.53;;;10.20;99.90;;;10.42;70.08;100634.66;5058509;28;20600;-70
2021/04/30 07:42:21;;;;;;;9.05;3.30;;;10.30;99.90;;;10.46;70.16;100644.09;5052325;28;20193;-70
2021/04/30 07:44:48;;;;;;;8.15;3.33;;;10.40;99.90;;;10.49;69.56;100652.69;5064915;28;20203;-70
2021/04/30 07:47:14;;;;;;;8.40;3.20;;;10.40;99.90;;;10.44;69.84;100654.63;5053241;28;20192;-69
2021/04/30 07:49:41;;;;;;;11.25;3.50;;;10.30;99.90;;;10.37;69.74;100654.88;5057807;28;20193;-69
2021/04/30 07:52:09;;;;;;;8.65;3.28;;;10.20;99.90;;;10.32;69.88;100664.66;5053867;28;20284;-69
2021/04/30 07:54:35;;;;;;;9.82;3.20;;;10.20;99.90;;;10.30;70.00;100656.06;5064521;28;20230;-69
2021/04/30 07:57:05;;;;;;;9.85;3.40;;;10.20;99.90;;;10.26;69.94;100667.53;5057880;28;20657;-69
2021/04/30 07:59:32;;;;;;;8.75;3.40;;;10.10;99.90;;;10.26;70.05;100667.53;5064060;28;20200;-69
2021/04/30 08:01:58;;;;;;;10.52;3.58;;;10.10;99.90;;;10.29;70.03;100670.03;5054525;28;20204;-69
2021/04/30 08:04:25;;;;;;;8.57;3.53;;;10.10;99.90;;;10.33;69.90;100669.00;5058201;28;20306;-70
2021/04/30 08:06:51;;;;;;;8.80;3.25;;;10.20;99.90;;;10.34;70.05;100675.94;5053336;28;20252;-69
2021/04/30 08:09:18;;;;;;;10.10;3.90;;;10.20;99.90;;;10.31;70.12;100678.66;5068111;28;20217;-70
2021/04/30 08:11:44;;;;;;;10.75;4.25;;;10.20;99.90;;;10.30;70.41;100685.66;5067798;28;20226;-70
2021/04/30 08:14:11;;;;;;;10.07;4.07;;;10.10;99.90;;;10.31;70.10;100686.53;5058909;28;20223;-71
2021/04/30 08:16:38;;;;;;;9.45;3.75;;;10.10;99.90;;;10.33;70.19;100692.56;5054975;28;20565;-70
2021/04/30 08:19:07;;;;;;;8.63;3.25;;;10.10;99.90;;;10.28;70.06;100690.13;5061029;28;20204;-71
2021/04/30 08:21:34;;;;;;;10.02;3.80;;;10.00;99.90;;;10.24;70.27;100690.25;5052509;28;20704;-70
2021/04/30 08:24:02;;;;;;;9.55;3.72;;;10.00;99.90;;;10.23;69.97;100686.78;5057672;28;20242;-75
2021/04/30 08:26:28;;;;;;;9.30;3.80;;;9.90;99.90;;;10.26;70.03;100706.75;5055467;28;20188;-70
2021/04/30 08:28:55;;;;;;;10.50;4.20;;;9.90;99.90;;;10.31;70.17;100708.31;5056355;28;20204;-68
2021/04/30 08:31:22;;;;;;;10.90;3.33;;;10.00;99.90;;;10.33;69.81;100719.56;5058015;28;20212;-70
2021/04/30 08:33:49;;;;;;;11.05;4.00;;;10.00;99.90;;;10.29;69.66;100717.97;5066127;28;20223;-72
2021/04/30 08:36:16;;;;;;;10.68;4.15;;;9.90;99.90;;;10.25;69.71;100723.38;5062803;28;20196;-72
2021/04/30 08:38:42;;;;;;;10.57;4.10;;;9.90;99.90;;;10.22;69.72;100729.53;5062395;28;20200;-72
2021/04/30 08:41:09;;;;;;;12.07;4.38;;;9.90;99.90;;;10.26;69.86;100727.69;5063324;28;20228;-69
2021/04/30 08:43:36;;;;;;;10.38;3.90;;;9.90;99.90;;;10.25;69.60;100726.81;5059989;28;20192;-71
2021/04/30 08:46:04;;;;;;;9.60;3.72;;;9.90;99.90;;;10.20;69.50;100730.53;5062743;28;20184;-71
2021/04/30 08:48:33;;;;;;;11.77;4.68;;;9.80;99.90;;;10.15;69.18;100722.00;5080152;28;20241;-70
2021/04/30 08:51:01;;;;;;;11.45;4.30;;;9.80;99.90;;;10.21;69.11;100734.84;5061898;28;20204;-69
2021/04/30 08:53:27;;;;;;;8.75;3.35;;;9.80;99.90;;;10.26;68.78;100738.13;5063915;28;20223;-67
2021/04/30 08:55:54;;;;;;;8.82;3.17;;;9.90;99.90;;;10.33;68.34;100740.50;5066017;28;20189;-69
2021/04/30 08:58:25;;;;;;;10.32;3.67;;;9.90;99.90;;;10.35;68.35;100743.88;5062514;28;20573;-73
2021/04/30 09:00:52;;;;;;;9.35;3.55;;;10.00;99.90;;;10.36;68.07;100737.75;5064465;28;20303;-71
2021/04/30 09:03:19;;;;;;;8.57;3.15;;;10.00;99.90;;;10.36;67.86;100742.13;5058039;28;20270;-71
2021/04/30 09:05:49;;;;;;;10.00;3.83;;;10.10;99.90;;;10.43;67.94;100741.00;5060356;28;20189;-67
2021/04/30 09:08:17;;;;;;;10.40;3.20;;;10.20;99.90;;;10.51;67.54;100739.81;5058197;28;20613;-70
2021/04/30 09:10:48;;;;;;;9.48;3.20;;;10.30;99.90;;;10.60;67.63;100756.94;5063599;28;20773;-70
2021/04/30 09:13:18;;;;;;;14.02;3.83;;;10.40;99.90;;;10.73;67.33;100750.34;5060487;28;20583;-72
2021/04/30 09:15:48;;;;;;;9.25;3.17;;;10.60;99.90;;;10.73;66.93;100761.66;5085026;28;20621;-69
2021/04/30 09:18:24;;;;;;;8.80;3.28;;;10.60;99.90;;;10.80;66.73;100764.91;5069186;28;20201;-69
2021/04/30 09:20:54;;;;;;;8.82;3.25;;;10.80;99.90;;;10.98;66.32;100766.81;5058442;28;20212;-68
2021/04/30 09:23:32;;;;;;;9.15;3.15;;;11.00;99.90;;;11.08;66.06;100769.03;5064918;28;20283;-69
2021/04/30 09:25:58;;;;;;;9.77;3.40;;;11.10;99.90;;;11.09;65.76;100769.84;5066997;28;20188;-70
2021/04/30 09:28:24;;;;;;;9.07;3.13;;;11.20;99.90;;;11.08;65.64;100768.16;5066608;28;20216;-68
2021/04/30 09:30:52;;;;;;;8.27;3.33;;;11.30;99.90;;;11.14;65.59;100765.28;5057448;28;20220;-69
2021/04/30 09:33:23;;;;;;;8.93;3.22;;;11.40;99.90;;;11.27;65.17;100769.13;5057469;28;20189;-69
2021/04/30 09:35:53;;;;;;;9.23;3.28;;;11.50;99.90;;;11.32;64.70;100773.28;5057616;28;20192;-69
2021/04/30 09:38:27;;;;;;;10.70;3.40;;;11.50;99.90;;;11.25;64.73;100774.44;5059768;28;20200;-68
2021/04/30 09:41:11;;;;;;;7.88;3.10;;;11.50;99.90;;;11.20;65.04;100772.94;5067727;28;20216;-68
2021/04/30 09:43:43;;;;;;;8.60;3.05;;;11.40;99.90;;;11.22;65.44;100779.81;5062831;28;20197;-68
2021/04/30 09:46:34;;;;;;;8.00;3.00;;;11.50;99.90;;;11.27;64.88;100783.09;5064158;28;20241;-69
2021/04/30 09:49:03;;;;;;;9.05;3.35;;;11.50;99.90;;;11.32;65.03;100775.03;5060266;28;20261;-70
2021/04/30 09:51:51;;;;;;;8.93;3.38;;;11.50;99.90;;;11.38;64.87;100782.69;5060251;28;20227;-70
2021/04/30 09:54:21;;;;;;;8.55;3.10;;;11.60;99.90;;;11.43;64.57;100788.59;5060453;28;20287;-71
2021/04/30 09:56:49;;;;;;;9.68;3.45;;;11.70;99.90;;;11.57;64.31;100785.41;5060337;28;20730;-71
2021/04/30 09:59:25;;;;;;;9.77;3.30;;;11.90;99.90;;;11.70;63.78;100790.13;5059470;28;20188;-70
2021/04/30 10:02:10;;;;;;;9.60;3.55;;;12.00;99.90;;;11.69;63.58;100788.41;5068144;28;20235;-68
2021/04/30 10:04:39;;;;;;;8.25;3.17;;;12.00;99.90;;;11.68;63.68;100793.72;5066689;28;20687;-69
2021/04/30 10:07:07;;;;;;;11.45;4.05;;;12.00;99.90;;;11.65;63.54;100788.59;5062656;28;20185;-69
2021/04/30 10:09:36;;;;;;;12.15;4.75;;;12.00;99.90;;;11.60;63.18;100794.00;5062841;28;20195;-68
2021/04/30 10:12:28;;;;;;;9.30;3.90;;;11.90;99.90;;;11.64;62.84;100794.78;5062878;28;20200;-70
2021/04/30 10:14:55;;;;;;;11.75;3.80;;;11.90;99.90;;;11.62;62.67;100792.16;5059544;28;20211;-68
2021/04/30 10:17:22;;;;;;;8.90;3.35;;;11.80;99.90;;;11.70;62.58;100790.13;5062953;28;20192;-69